createdAt,value
2018-05-18T00:00:16.076Z,2.75
2018-05-18T00:02:43.520Z,2.45
2018-05-18T00:05:10.996Z,3.30
2018-05-18T00:07:38.455Z,2.90
2018-05-18T00:10:05.908Z,2.67
2018-05-18T00:12:33.368Z,2.92
2018-05-18T00:15:00.825Z,2.72
2018-05-18T00:17:28.285Z,3.17
2018-05-18T00:19:56.604Z,2.83
2018-05-18T00:22:24.825Z,2.60
2018-05-18T00:24:52.309Z,3.30
2018-05-18T00:27:20.209Z,2.65
2018-05-18T00:29:47.693Z,3.05
2018-05-18T00:32:15.144Z,2.70
2018-05-18T00:34:42.666Z,3.30
2018-05-18T00:37:10.887Z,2.72
2018-05-18T00:39:38.357Z,2.87
2018-05-18T00:42:05.838Z,3.55
2018-05-18T00:44:33.320Z,2.70
2018-05-18T00:47:01.624Z,3.10
2018-05-18T00:49:29.048Z,3.15
2018-05-18T00:51:57.289Z,2.65
2018-05-18T00:54:24.769Z,3.03
2018-05-18T00:56:52.219Z,2.42
2018-05-18T00:59:20.137Z,2.58
2018-05-18T01:01:47.604Z,2.80
2018-05-18T01:04:15.105Z,3.70
2018-05-18T01:06:42.561Z,2.95
2018-05-18T01:09:10.041Z,3.17
2018-05-18T01:11:38.282Z,2.70
2018-05-18T01:14:05.756Z,3.22
2018-05-18T01:16:33.204Z,3.22
2018-05-18T01:19:00.665Z,3.22
2018-05-18T01:21:28.120Z,3.08
2018-05-18T01:23:55.640Z,3.70
2018-05-18T01:26:23.093Z,3.45
2018-05-18T01:28:50.567Z,3.17
2018-05-18T01:31:18.044Z,3.42
2018-05-18T01:33:45.537Z,2.87
2018-05-18T01:36:13.777Z,3.40
2018-05-18T01:38:41.261Z,3.00
2018-05-18T01:41:09.512Z,3.47
2018-05-18T01:43:36.987Z,3.22
2018-05-18T01:46:04.448Z,3.67
2018-05-18T01:48:31.933Z,3.25
2018-05-18T01:50:59.396Z,3.15
2018-05-18T01:53:26.872Z,2.92
2018-05-18T01:55:54.363Z,3.15
2018-05-18T01:58:21.847Z,3.08
2018-05-18T02:00:50.063Z,2.92
2018-05-18T02:03:17.510Z,2.90
2018-05-18T02:05:44.990Z,3.42
2018-05-18T02:08:12.472Z,3.05
2018-05-18T02:10:39.932Z,3.67
2018-05-18T02:13:08.412Z,3.40
2018-05-18T02:15:35.868Z,4.70
2018-05-18T02:18:03.340Z,4.85
2018-05-18T02:20:30.792Z,6.45
2018-05-18T02:22:59.060Z,6.70
2018-05-18T02:25:26.543Z,7.53
2018-05-18T02:27:54.797Z,8.02
2018-05-18T02:30:22.260Z,6.72
2018-05-18T02:32:50.490Z,9.13
2018-05-18T02:35:17.960Z,9.30
2018-05-18T02:37:45.416Z,9.63
2018-05-18T02:40:12.872Z,10.80
2018-05-18T02:42:40.341Z,12.43
2018-05-18T02:45:07.839Z,12.23
2018-05-18T02:47:36.072Z,13.15
2018-05-18T02:50:03.555Z,12.45
2018-05-18T02:52:31.152Z,12.82
2018-05-18T02:54:58.531Z,12.40
2018-05-18T02:57:25.988Z,12.73
2018-05-18T02:59:53.463Z,13.73
2018-05-18T03:02:21.139Z,13.55
2018-05-18T03:04:48.608Z,14.98
2018-05-18T03:07:16.876Z,13.80
2018-05-18T03:09:44.341Z,13.32
2018-05-18T03:12:12.572Z,14.38
2018-05-18T03:14:40.036Z,13.32
2018-05-18T03:17:07.498Z,13.93
2018-05-18T03:19:34.984Z,15.30
2018-05-18T03:22:02.444Z,14.50
2018-05-18T03:24:30.692Z,15.02
2018-05-18T03:26:58.153Z,15.85
2018-05-18T03:29:25.960Z,15.23
2018-05-18T03:31:53.475Z,15.10
2018-05-18T03:34:20.961Z,17.70
2018-05-18T03:36:48.421Z,17.83
2018-05-18T03:39:16.655Z,17.40
2018-05-18T03:41:44.144Z,18.45
2018-05-18T03:44:12.375Z,19.10
2018-05-18T03:46:39.840Z,18.65
2018-05-18T03:49:07.309Z,20.35
2018-05-18T03:51:34.776Z,23.15
2018-05-18T03:54:02.244Z,25.10
2018-05-18T03:56:29.705Z,24.52
2018-05-18T03:58:57.196Z,25.92
2018-05-18T04:01:36.447Z,27.13
2018-05-18T04:04:15.851Z,27.13
2018-05-18T04:06:55.984Z,27.17
2018-05-18T04:09:23.467Z,28.02
2018-05-18T04:11:51.730Z,26.90
2018-05-18T04:14:19.968Z,26.67
2018-05-18T04:16:47.447Z,29.05
2018-05-18T04:19:14.934Z,29.42
2018-05-18T04:21:43.180Z,28.48
2018-05-18T04:24:10.646Z,28.60
2018-05-18T04:26:38.124Z,29.12
2018-05-18T04:29:06.376Z,27.17
2018-05-18T04:31:33.852Z,24.52
2018-05-18T04:34:02.084Z,30.65
2018-05-18T04:36:29.546Z,30.48
2018-05-18T04:38:57.004Z,29.67
2018-05-18T04:41:24.492Z,29.12
2018-05-18T04:43:52.747Z,29.67
2018-05-18T04:46:20.203Z,28.67
2018-05-18T04:48:47.664Z,27.02
2018-05-18T04:51:15.137Z,27.95
2018-05-18T04:53:43.368Z,31.37
2018-05-18T04:56:11.599Z,30.85
2018-05-18T04:58:39.832Z,30.80
2018-05-18T05:01:07.301Z,28.33
2018-05-18T05:03:34.817Z,27.77
2018-05-18T05:06:02.300Z,26.48
2018-05-18T05:08:29.773Z,27.60
2018-05-18T05:10:57.228Z,30.25
2018-05-18T05:13:24.687Z,27.45
2018-05-18T05:15:52.172Z,29.17
2018-05-18T05:18:20.419Z,29.83
2018-05-18T05:20:47.904Z,30.85
2018-05-18T05:23:16.139Z,28.42
2018-05-18T05:25:43.624Z,28.95
2018-05-18T05:28:11.101Z,28.77
2018-05-18T05:30:38.592Z,28.50
2018-05-18T05:33:06.052Z,27.27
2018-05-18T05:35:33.520Z,28.05
2018-05-18T05:38:00.975Z,28.35
2018-05-18T05:40:28.457Z,28.42
2018-05-18T05:42:55.912Z,27.33
2018-05-18T05:45:23.404Z,28.05
2018-05-18T05:47:51.667Z,27.92
2018-05-18T05:50:19.124Z,27.15
2018-05-18T05:52:47.437Z,26.70
2018-05-18T05:55:14.880Z,28.15
2018-05-18T05:57:42.341Z,26.80
2018-05-18T06:00:09.808Z,25.95
2018-05-18T06:02:37.298Z,23.05
2018-05-18T06:05:04.741Z,24.80
2018-05-18T06:07:32.211Z,21.45
2018-05-18T06:09:59.678Z,22.90
2018-05-18T06:12:27.132Z,23.27
2018-05-18T06:14:54.631Z,23.00
2018-05-18T06:17:22.855Z,22.65
2018-05-18T06:19:50.320Z,23.62
2018-05-18T06:22:17.772Z,24.65
2018-05-18T06:24:45.269Z,23.55
2018-05-18T06:27:14.271Z,25.92
2018-05-18T06:29:42.586Z,26.05
2018-05-18T06:32:10.038Z,25.45
2018-05-18T06:34:37.590Z,24.95
2018-05-18T06:37:05.033Z,25.45
2018-05-18T06:39:32.520Z,23.25
2018-05-18T06:41:59.993Z,26.10
2018-05-18T06:44:27.448Z,24.75
2018-05-18T06:46:54.958Z,23.58
2018-05-18T06:49:22.452Z,25.60
2018-05-18T06:51:49.939Z,24.70
2018-05-18T06:54:17.406Z,25.60
2018-05-18T06:56:44.887Z,25.42
2018-05-18T06:59:12.375Z,26.45
2018-05-18T07:01:39.848Z,25.52
2018-05-18T07:04:07.339Z,22.83
2018-05-18T07:06:34.791Z,22.60
2018-05-18T07:09:02.268Z,21.58
2018-05-18T07:11:29.732Z,24.17
2018-05-18T07:13:57.210Z,24.67
2018-05-18T07:16:24.729Z,26.45
2018-05-18T07:18:52.173Z,25.52
2018-05-18T07:21:19.636Z,24.50
2018-05-18T07:23:47.099Z,23.98
2018-05-18T07:26:14.564Z,24.87
2018-05-18T07:28:42.809Z,24.50
2018-05-18T07:31:10.267Z,24.67
2018-05-18T07:33:37.752Z,22.83
2018-05-18T07:36:05.271Z,21.73
2018-05-18T07:38:33.443Z,21.52
2018-05-18T07:41:00.939Z,22.67
2018-05-18T07:43:28.414Z,20.73
2018-05-18T07:45:56.671Z,21.12
2018-05-18T07:48:24.133Z,21.30
2018-05-18T07:50:52.395Z,21.62
2018-05-18T07:53:19.882Z,20.27
2018-05-18T07:55:47.372Z,21.27
2018-05-18T07:58:14.865Z,21.08
2018-05-18T08:00:42.366Z,20.58
2018-05-18T08:03:09.880Z,21.02
2018-05-18T08:05:37.385Z,19.98
2018-05-18T08:08:04.907Z,20.67
2018-05-18T08:10:32.400Z,20.37
2018-05-18T08:12:59.871Z,21.87
2018-05-18T08:15:27.353Z,20.48
2018-05-18T08:17:54.848Z,20.30
2018-05-18T08:20:23.102Z,19.55
2018-05-18T08:22:50.574Z,19.02
2018-05-18T08:25:18.842Z,19.20
2018-05-18T08:27:46.408Z,20.05
2018-05-18T08:30:14.589Z,19.43
2018-05-18T08:32:44.590Z,20.93
2018-05-18T08:35:12.062Z,19.23
2018-05-18T08:37:39.557Z,18.53
2018-05-18T08:40:07.028Z,18.37
2018-05-18T08:42:34.524Z,18.60
2018-05-18T08:45:02.022Z,17.67
2018-05-18T08:47:29.502Z,17.03
2018-05-18T08:49:57.037Z,18.10
2018-05-18T08:52:24.538Z,17.97
2018-05-18T08:54:52.033Z,18.80
2018-05-18T08:57:20.252Z,18.80
2018-05-18T08:59:47.860Z,16.90
2018-05-18T09:02:16.112Z,17.90
2018-05-18T09:04:43.609Z,16.77
2018-05-18T09:07:11.843Z,17.43
2018-05-18T09:09:39.325Z,17.07
2018-05-18T09:12:06.821Z,17.23
2018-05-18T09:14:34.276Z,17.27
2018-05-18T09:17:01.765Z,15.87
2018-05-18T09:19:29.248Z,14.77
2018-05-18T09:21:56.723Z,15.00
2018-05-18T09:24:24.953Z,15.07
2018-05-18T09:26:52.438Z,15.33
2018-05-18T09:29:20.043Z,15.10
2018-05-18T09:31:47.524Z,15.57
2018-05-18T09:34:15.025Z,13.57
2018-05-18T09:36:42.502Z,13.67
2018-05-18T09:39:09.980Z,13.07
2018-05-18T09:41:37.692Z,13.60
2018-05-18T09:44:05.187Z,11.93
2018-05-18T09:46:32.664Z,13.70
2018-05-18T09:49:00.157Z,11.93
2018-05-18T09:51:27.636Z,13.57
2018-05-18T09:53:55.884Z,12.73
2018-05-18T09:56:23.356Z,13.30
2018-05-18T09:58:50.866Z,13.10
2018-05-18T10:01:18.403Z,14.27
2018-05-18T10:03:45.897Z,14.83
2018-05-18T10:06:13.414Z,13.33
2018-05-18T10:08:40.973Z,13.67
2018-05-18T10:11:09.205Z,13.40
2018-05-18T10:13:36.720Z,13.27
2018-05-18T10:16:04.208Z,12.93
2018-05-18T10:18:31.687Z,12.07
2018-05-18T10:20:59.189Z,12.93
2018-05-18T10:23:27.451Z,13.03
2018-05-18T10:25:55.676Z,13.13
2018-05-18T10:28:26.123Z,13.03
2018-05-18T10:30:53.603Z,12.90
2018-05-18T10:33:21.088Z,12.40
2018-05-18T10:35:48.539Z,11.93
2018-05-18T10:38:16.076Z,11.60
2018-05-18T10:40:44.343Z,11.10
2018-05-18T10:43:12.719Z,10.60
2018-05-18T10:45:40.173Z,11.40
2018-05-18T10:48:07.644Z,11.73
2018-05-18T10:50:35.112Z,11.70
2018-05-18T10:53:03.388Z,10.83
2018-05-18T10:55:31.651Z,10.37
2018-05-18T10:57:59.128Z,10.87
2018-05-18T11:00:27.369Z,11.17
2018-05-18T11:02:54.842Z,11.60
2018-05-18T11:05:22.363Z,12.40
2018-05-18T11:07:50.579Z,10.33
2018-05-18T11:10:18.040Z,9.93
2018-05-18T11:12:45.501Z,9.60
2018-05-18T11:15:12.995Z,9.00
2018-05-18T11:17:40.569Z,9.53
2018-05-18T11:20:08.141Z,9.77
2018-05-18T11:22:35.611Z,9.57
2018-05-18T11:25:03.101Z,9.33
2018-05-18T11:27:31.359Z,9.37
2018-05-18T11:29:58.820Z,8.47
2018-05-18T11:32:26.293Z,8.20
2018-05-18T11:34:54.553Z,8.63
2018-05-18T11:37:22.032Z,8.17
2018-05-18T11:39:50.275Z,7.93
2018-05-18T11:42:17.755Z,7.13
2018-05-18T11:44:45.211Z,6.63
2018-05-18T11:47:13.451Z,6.70
2018-05-18T11:49:40.936Z,7.33
2018-05-18T11:52:08.387Z,6.80
2018-05-18T11:54:35.913Z,6.27
2018-05-18T11:57:03.333Z,6.13
2018-05-18T11:59:31.209Z,6.60
2018-05-18T12:01:58.686Z,6.70
2018-05-18T12:04:26.162Z,6.90
2018-05-18T12:06:53.646Z,5.93
2018-05-18T12:09:21.096Z,6.20
2018-05-18T12:11:48.593Z,5.20
2018-05-18T12:14:16.061Z,5.90
2018-05-18T12:16:43.557Z,6.40
2018-05-18T12:19:11.024Z,5.80
2018-05-18T12:21:38.488Z,6.20
2018-05-18T12:24:05.969Z,5.47
2018-05-18T12:26:34.213Z,5.43
2018-05-18T12:29:01.704Z,4.67
2018-05-18T12:31:29.970Z,5.43
2018-05-18T12:33:57.439Z,5.00
2018-05-18T12:36:24.933Z,5.73
2018-05-18T12:38:52.409Z,5.17
2018-05-18T12:41:19.865Z,4.93
2018-05-18T12:43:47.370Z,5.13
2018-05-18T12:46:14.861Z,5.40
2018-05-18T12:48:42.332Z,4.10
2018-05-18T12:51:09.799Z,3.97
2018-05-18T12:53:37.360Z,4.20
2018-05-18T12:56:04.846Z,4.40
2018-05-18T12:58:34.221Z,4.80
2018-05-18T13:01:01.723Z,4.97
2018-05-18T13:03:30.007Z,4.90
2018-05-18T13:05:57.485Z,5.20
2018-05-18T13:08:24.964Z,5.40
2018-05-18T13:10:53.228Z,4.50
2018-05-18T13:13:20.868Z,4.50
2018-05-18T13:15:48.445Z,5.30
2018-05-18T13:18:15.848Z,4.87
2018-05-18T13:20:43.320Z,4.17
2018-05-18T13:23:11.557Z,4.63
2018-05-18T13:25:39.016Z,4.10
2018-05-18T13:28:06.566Z,3.87
2018-05-18T13:30:34.091Z,3.73
2018-05-18T13:33:01.487Z,4.10
2018-05-18T13:35:28.954Z,4.10
2018-05-18T13:37:56.977Z,3.87
2018-05-18T13:40:24.437Z,4.00
2018-05-18T13:42:51.928Z,3.47
2018-05-18T13:45:19.389Z,3.57
2018-05-18T13:47:46.880Z,4.43
2018-05-18T13:50:15.121Z,3.47
2018-05-18T13:52:42.668Z,3.77
2018-05-18T13:55:10.117Z,3.73
2018-05-18T13:57:37.596Z,3.17
2018-05-18T14:00:05.049Z,3.37
2018-05-18T14:02:32.508Z,3.73
2018-05-18T14:04:59.986Z,3.57
2018-05-18T14:07:27.461Z,3.73
2018-05-18T14:09:54.992Z,3.17
2018-05-18T14:12:22.488Z,3.10
2018-05-18T14:14:50.009Z,3.27
2018-05-18T14:17:18.632Z,3.77
2018-05-18T14:19:46.123Z,3.43
2018-05-18T14:22:13.583Z,3.83
2018-05-18T14:24:41.063Z,3.33
2018-05-18T14:27:08.555Z,4.00
2018-05-18T14:29:38.719Z,3.50
2018-05-18T14:32:06.167Z,3.87
2018-05-18T14:34:33.661Z,3.03
2018-05-18T14:37:01.149Z,3.40
2018-05-18T14:39:35.288Z,3.53
2018-05-18T14:42:02.994Z,3.63
2018-05-18T14:44:30.452Z,3.77
2018-05-18T14:46:57.925Z,3.47
2018-05-18T14:49:25.459Z,3.50
2018-05-18T14:51:52.982Z,3.00
2018-05-18T14:54:20.464Z,3.97
2018-05-18T14:56:47.940Z,3.53
2018-05-18T14:59:15.527Z,3.57
2018-05-18T15:01:43.390Z,4.00
2018-05-18T15:04:10.840Z,3.33
2018-05-18T15:06:38.317Z,3.90
2018-05-18T15:09:05.794Z,3.50
2018-05-18T15:11:33.272Z,3.60
2018-05-18T15:14:00.846Z,3.60
2018-05-18T15:16:28.297Z,3.17
2018-05-18T15:18:56.527Z,3.33
2018-05-18T15:21:23.986Z,3.50
2018-05-18T15:23:51.475Z,3.47
2018-05-18T15:26:19.703Z,3.40
2018-05-18T15:28:47.213Z,3.37
2018-05-18T15:31:15.466Z,3.50
2018-05-18T15:33:42.956Z,3.30
2018-05-18T15:36:10.500Z,3.07
2018-05-18T15:38:38.757Z,3.17
2018-05-18T15:41:06.221Z,3.80
2018-05-18T15:43:33.714Z,2.70
2018-05-18T15:46:01.201Z,2.80
2018-05-18T15:48:28.681Z,3.50
2018-05-18T15:50:56.181Z,3.00
2018-05-18T15:53:23.672Z,3.20
2018-05-18T15:55:51.128Z,2.73
2018-05-18T15:58:18.617Z,3.70
2018-05-18T16:00:46.085Z,3.20
2018-05-18T16:03:13.645Z,3.50
2018-05-18T16:05:41.123Z,2.60
2018-05-18T16:08:09.397Z,3.30
2018-05-18T16:10:37.642Z,3.23
2018-05-18T16:13:05.108Z,2.63
2018-05-18T16:15:32.595Z,2.90
2018-05-18T16:18:00.087Z,3.33
2018-05-18T16:20:27.572Z,2.50
2018-05-18T16:22:55.061Z,3.10
2018-05-18T16:25:23.299Z,3.37
2018-05-18T16:27:50.797Z,2.80
2018-05-18T16:30:18.276Z,3.27
2018-05-18T16:32:45.760Z,3.13
2018-05-18T16:35:13.255Z,2.80
2018-05-18T16:37:41.496Z,3.20
2018-05-18T16:40:09.051Z,2.63
2018-05-18T16:42:36.515Z,2.90
2018-05-18T16:45:03.974Z,3.03
2018-05-18T16:47:31.478Z,2.93
2018-05-18T16:49:59.709Z,2.93
2018-05-18T16:52:27.173Z,2.70
2018-05-18T16:54:54.624Z,2.30
2018-05-18T16:57:22.118Z,3.20
2018-05-18T16:59:50.390Z,2.77
2018-05-18T17:02:18.639Z,3.30
2018-05-18T17:04:46.096Z,2.97
2018-05-18T17:07:13.576Z,3.17
2018-05-18T17:09:41.821Z,3.00
2018-05-18T17:12:09.372Z,2.43
2018-05-18T17:14:36.856Z,2.40
2018-05-18T17:17:04.317Z,2.70
2018-05-18T17:19:31.786Z,2.83
2018-05-18T17:22:00.019Z,3.27
2018-05-18T17:24:27.526Z,2.70
2018-05-18T17:26:55.819Z,2.87
2018-05-18T17:29:23.732Z,2.83
2018-05-18T17:31:51.227Z,2.90
2018-05-18T17:34:19.456Z,3.30
2018-05-18T17:36:46.929Z,2.87
2018-05-18T17:39:14.408Z,2.60
2018-05-18T17:41:41.881Z,3.00
2018-05-18T17:44:10.106Z,3.00
2018-05-18T17:46:37.597Z,2.40
2018-05-18T17:49:05.065Z,2.80
2018-05-18T17:51:33.316Z,3.40
2018-05-18T17:54:00.834Z,2.90
2018-05-18T17:56:28.343Z,3.20
2018-05-18T17:58:55.816Z,2.90
2018-05-18T18:01:24.124Z,3.17
2018-05-18T18:03:51.526Z,3.30
2018-05-18T18:06:18.968Z,2.87
2018-05-18T18:08:46.419Z,3.17
2018-05-18T18:11:13.917Z,3.43
2018-05-18T18:13:42.152Z,2.73
2018-05-18T18:16:09.627Z,2.60
2018-05-18T18:18:37.976Z,3.50
2018-05-18T18:21:05.482Z,2.70
2018-05-18T18:23:32.948Z,2.60
2018-05-18T18:26:01.168Z,2.50
2018-05-18T18:28:28.641Z,3.43
2018-05-18T18:30:56.111Z,2.53
2018-05-18T18:33:23.576Z,2.80
2018-05-18T18:35:51.064Z,2.63
2018-05-18T18:38:18.561Z,2.87
2018-05-18T18:40:46.037Z,3.30
2018-05-18T18:43:14.087Z,3.60
2018-05-18T18:45:41.570Z,3.03
2018-05-18T18:48:09.025Z,3.60
2018-05-18T18:50:36.476Z,3.53
2018-05-18T18:53:03.964Z,2.83
2018-05-18T18:55:32.230Z,2.93
2018-05-18T18:57:59.704Z,3.40
2018-05-18T19:00:27.956Z,3.63
2018-05-18T19:02:55.404Z,3.33
2018-05-18T19:05:22.898Z,3.67
2018-05-18T19:07:51.139Z,3.60
2018-05-18T19:10:18.621Z,3.03
2018-05-18T19:12:46.888Z,3.40
2018-05-18T19:15:14.344Z,3.63
2018-05-18T19:17:41.818Z,3.00
2018-05-18T19:20:10.008Z,3.10
2018-05-18T19:22:37.492Z,3.40
2018-05-18T19:25:05.001Z,3.00
2018-05-18T19:27:33.212Z,2.70
2018-05-18T19:30:00.705Z,2.47
2018-05-18T19:32:28.170Z,3.00
2018-05-18T19:34:55.664Z,2.50
2018-05-18T19:37:23.161Z,2.80
2018-05-18T19:39:50.612Z,2.57
2018-05-18T19:42:18.109Z,2.37
2018-05-18T19:44:45.594Z,2.93
2018-05-18T19:47:13.816Z,3.20
2018-05-18T19:49:41.336Z,2.77
2018-05-18T19:52:08.805Z,2.73
2018-05-18T19:54:36.263Z,3.23
2018-05-18T19:57:03.759Z,3.03
2018-05-18T19:59:31.249Z,2.97
2018-05-18T20:01:59.484Z,3.00
2018-05-18T20:04:26.946Z,2.77
2018-05-18T20:06:54.442Z,3.10
2018-05-18T20:09:22.660Z,2.90
2018-05-18T20:11:50.160Z,2.90
2018-05-18T20:14:17.647Z,2.70
2018-05-18T20:16:45.108Z,2.70
2018-05-18T20:19:12.569Z,3.13
2018-05-18T20:21:40.026Z,2.30
2018-05-18T20:24:07.490Z,2.60
2018-05-18T20:26:34.993Z,2.70
2018-05-18T20:29:02.477Z,2.50
2018-05-18T20:31:30.744Z,2.13
2018-05-18T20:33:59.003Z,2.20
2018-05-18T20:36:26.494Z,2.70
2018-05-18T20:38:54.735Z,2.60
2018-05-18T20:41:22.196Z,2.73
2018-05-18T20:43:49.683Z,2.37
2018-05-18T20:46:17.928Z,2.00
2018-05-18T20:48:45.403Z,2.33
2018-05-18T20:51:13.628Z,2.77
2018-05-18T20:53:41.100Z,2.80
2018-05-18T20:56:08.593Z,2.37
2018-05-18T20:58:36.139Z,2.77
2018-05-18T21:01:04.318Z,2.40
2018-05-18T21:03:31.821Z,2.67
2018-05-18T21:06:00.027Z,2.90
2018-05-18T21:08:27.493Z,2.47
2018-05-18T21:10:54.999Z,2.73
2018-05-18T21:13:22.495Z,2.97
2018-05-18T21:15:49.956Z,2.83
2018-05-18T21:18:17.437Z,2.90
2018-05-18T21:20:44.920Z,2.90
2018-05-18T21:23:13.140Z,2.83
2018-05-18T21:25:40.606Z,3.00
2018-05-18T21:28:08.128Z,3.05
2018-05-18T21:30:35.694Z,3.10
2018-05-18T21:33:03.101Z,3.53
2018-05-18T21:35:30.556Z,2.70
2018-05-18T21:37:58.833Z,3.25
2018-05-18T21:40:26.299Z,3.07
2018-05-18T21:42:54.543Z,3.05
2018-05-18T21:45:22.029Z,2.90
2018-05-18T21:47:50.280Z,3.00
2018-05-18T21:50:17.737Z,3.22
2018-05-18T21:52:45.223Z,2.85
2018-05-18T21:55:13.486Z,3.10
2018-05-18T21:57:40.942Z,3.35
2018-05-18T22:00:08.439Z,3.03
2018-05-18T22:02:35.904Z,3.08
2018-05-18T22:05:03.410Z,3.20
2018-05-18T22:07:30.852Z,3.53
2018-05-18T22:09:58.344Z,3.10
2018-05-18T22:12:26.572Z,3.00
2018-05-18T22:14:54.048Z,2.97
2018-05-18T22:17:21.510Z,2.95
2018-05-18T22:19:48.971Z,3.20
2018-05-18T22:22:16.527Z,3.10
2018-05-18T22:24:43.929Z,3.03
2018-05-18T22:27:11.420Z,3.50
2018-05-18T22:29:38.926Z,3.20
2018-05-18T22:32:07.169Z,3.58
2018-05-18T22:34:34.652Z,2.85
2018-05-18T22:37:02.115Z,2.87
2018-05-18T22:39:30.354Z,2.78
2018-05-18T22:41:57.823Z,3.42
2018-05-18T22:44:25.327Z,3.42
2018-05-18T22:46:53.559Z,3.10
2018-05-18T22:49:21.050Z,2.87
2018-05-18T22:51:49.331Z,3.42
2018-05-18T22:54:17.578Z,3.00
2018-05-18T22:56:45.072Z,3.45
2018-05-18T22:59:12.564Z,3.72
2018-05-18T23:01:40.077Z,3.20
2018-05-18T23:04:08.309Z,3.08
2018-05-18T23:06:35.760Z,3.70
2018-05-18T23:09:03.239Z,3.58
2018-05-18T23:11:30.735Z,3.62
2018-05-18T23:13:58.206Z,3.22
2018-05-18T23:16:25.692Z,2.83
2018-05-18T23:18:53.174Z,3.35
2018-05-18T23:21:20.659Z,3.00
2018-05-18T23:23:48.117Z,2.95
2018-05-18T23:26:15.567Z,3.08
2018-05-18T23:28:43.044Z,3.40
2018-05-18T23:31:10.550Z,3.40
2018-05-18T23:33:38.025Z,2.90
2018-05-18T23:36:05.502Z,2.90
2018-05-18T23:38:33.733Z,2.87
2018-05-18T23:41:01.184Z,3.22
2018-05-18T23:43:28.675Z,2.78
2018-05-18T23:45:56.920Z,3.47
2018-05-18T23:48:24.423Z,3.42
2018-05-18T23:50:52.674Z,3.50
2018-05-18T23:53:21.029Z,3.12
2018-05-18T23:55:48.512Z,3.00
2018-05-18T23:58:16.018Z,3.25
